createdAt,value
2019-02-20T00:02:00.000Z,10.2
2019-02-20T00:07:00.000Z,10.1
2019-02-20T00:12:00.000Z,10.1
2019-02-20T00:17:00.000Z,10.0
2019-02-20T00:22:00.000Z,9.9
2019-02-20T00:27:00.000Z,9.9
2019-02-20T00:32:00.000Z,9.8
2019-02-20T00:37:00.000Z,9.7
2019-02-20T00:42:00.000Z,9.7
2019-02-20T00:47:00.000Z,9.6
2019-02-20T00:52:00.000Z,9.5
2019-02-20T00:57:00.000Z,9.5
2019-02-20T01:02:00.000Z,9.4
2019-02-20T01:07:00.000Z,9.3
2019-02-20T01:12:00.000Z,9.2
2019-02-20T01:17:00.000Z,9.1
2019-02-20T01:22:00.000Z,9.0
2019-02-20T01:28:00.000Z,8.9
2019-02-20T01:33:00.000Z,8.8
2019-02-20T01:38:00.000Z,8.7
2019-02-20T01:43:00.000Z,8.6
2019-02-20T01:48:00.000Z,8.5
2019-02-20T01:53:00.000Z,8.4
2019-02-20T01:58:00.000Z,8.3
2019-02-20T02:03:00.000Z,8.1
2019-02-20T02:08:00.000Z,8.0
2019-02-20T02:13:00.000Z,7.9
2019-02-20T02:18:00.000Z,7.8
2019-02-20T02:23:00.000Z,7.7
2019-02-20T02:28:00.000Z,7.7
2019-02-20T02:33:00.000Z,7.6
2019-02-20T02:38:00.000Z,7.5
2019-02-20T02:43:00.000Z,7.4
2019-02-20T02:48:00.000Z,7.3
2019-02-20T02:53:00.000Z,7.3
2019-02-20T02:58:00.000Z,7.3
2019-02-20T03:03:00.000Z,7.2
2019-02-20T03:08:00.000Z,7.2
2019-02-20T03:13:00.000Z,7.1
2019-02-20T03:18:00.000Z,7.1
2019-02-20T03:23:00.000Z,7.1
2019-02-20T03:28:00.000Z,7.0
2019-02-20T03:33:00.000Z,7.0
2019-02-20T03:38:00.000Z,7.0
2019-02-20T03:43:00.000Z,6.9
2019-02-20T03:48:00.000Z,6.8
2019-02-20T03:53:00.000Z,6.8
2019-02-20T03:58:00.000Z,6.7
2019-02-20T04:03:00.000Z,6.7
2019-02-20T04:08:00.000Z,6.7
2019-02-20T04:13:00.000Z,6.7
2019-02-20T04:18:00.000Z,6.6
2019-02-20T04:23:00.000Z,6.6
2019-02-20T04:29:00.000Z,6.5
2019-02-20T04:34:00.000Z,6.5
2019-02-20T04:39:00.000Z,6.5
2019-02-20T04:44:00.000Z,6.4
2019-02-20T04:49:00.000Z,6.4
2019-02-20T04:54:00.000Z,6.4
2019-02-20T04:59:00.000Z,6.4
2019-02-20T05:04:00.000Z,6.3
2019-02-20T05:09:00.000Z,6.3
2019-02-20T05:14:00.000Z,6.2
2019-02-20T05:19:00.000Z,6.2
2019-02-20T05:24:00.000Z,6.2
2019-02-20T05:29:00.000Z,6.2
2019-02-20T05:34:00.000Z,6.2
2019-02-20T05:39:00.000Z,6.2
2019-02-20T05:44:00.000Z,6.2
2019-02-20T05:49:00.000Z,6.1
2019-02-20T05:54:00.000Z,6.1
2019-02-20T05:59:00.000Z,6.1
2019-02-20T06:04:00.000Z,6.1
2019-02-20T06:09:00.000Z,6.0
2019-02-20T06:14:00.000Z,6.0
2019-02-20T06:19:00.000Z,6.0
2019-02-20T06:24:00.000Z,6.0
2019-02-20T06:29:00.000Z,6.1
2019-02-20T06:34:00.000Z,6.1
2019-02-20T06:39:00.000Z,6.2
2019-02-20T06:44:00.000Z,6.3
2019-02-20T06:49:00.000Z,6.4
2019-02-20T06:54:00.000Z,6.4
2019-02-20T06:59:00.000Z,6.5
2019-02-20T07:04:00.000Z,6.6
2019-02-20T07:09:00.000Z,6.7
2019-02-20T07:14:00.000Z,6.7
2019-02-20T07:19:00.000Z,6.7
2019-02-20T07:24:00.000Z,6.8
2019-02-20T07:30:00.000Z,6.9
2019-02-20T07:35:00.000Z,6.9
2019-02-20T07:40:00.000Z,7.0
2019-02-20T07:45:00.000Z,7.1
2019-02-20T07:50:00.000Z,7.2
2019-02-20T07:55:00.000Z,7.3
2019-02-20T08:00:00.000Z,7.4
2019-02-20T08:05:00.000Z,7.5
2019-02-20T08:10:00.000Z,7.6
2019-02-20T08:15:00.000Z,7.8
2019-02-20T08:20:00.000Z,7.9
2019-02-20T08:25:00.000Z,8.1
2019-02-20T08:30:00.000Z,8.2
2019-02-20T08:35:00.000Z,8.3
2019-02-20T08:40:00.000Z,8.4
2019-02-20T08:45:00.000Z,8.5
2019-02-20T08:50:00.000Z,8.6
2019-02-20T08:55:00.000Z,8.9
2019-02-20T09:00:00.000Z,9.1
2019-02-20T09:05:00.000Z,9.3
2019-02-20T09:10:00.000Z,9.8
2019-02-20T09:15:00.000Z,10.3
2019-02-20T09:20:00.000Z,10.2
2019-02-20T09:25:00.000Z,10.2
2019-02-20T09:30:00.000Z,10.0
2019-02-20T09:35:00.000Z,9.8
2019-02-20T09:40:00.000Z,9.6
2019-02-20T09:45:00.000Z,9.5
2019-02-20T09:50:00.000Z,9.5
2019-02-20T09:55:00.000Z,9.6
2019-02-20T10:06:00.000Z,10.1
2019-02-20T10:11:00.000Z,10.4
2019-02-20T10:16:00.000Z,10.7
2019-02-20T10:21:00.000Z,11.0
2019-02-20T10:26:00.000Z,11.4
2019-02-20T10:31:00.000Z,11.9
2019-02-20T10:36:00.000Z,12.5
2019-02-20T10:41:00.000Z,12.8
2019-02-20T10:46:00.000Z,12.9
2019-02-20T10:51:00.000Z,13.2
2019-02-20T10:56:00.000Z,13.6
2019-02-20T11:01:00.000Z,13.5
2019-02-20T11:06:00.000Z,13.1
2019-02-20T11:11:00.000Z,13.0
2019-02-20T11:16:00.000Z,13.1
2019-02-20T11:21:00.000Z,13.2
2019-02-20T11:26:00.000Z,13.2
2019-02-20T11:31:00.000Z,13.1
2019-02-20T11:36:00.000Z,12.6
2019-02-20T11:41:00.000Z,12.0
2019-02-20T11:46:00.000Z,11.6
2019-02-20T11:51:00.000Z,11.4
2019-02-20T11:56:00.000Z,11.1
2019-02-20T12:01:00.000Z,11.1
2019-02-20T12:06:00.000Z,11.1
2019-02-20T12:11:00.000Z,11.0
2019-02-20T12:16:00.000Z,11.0
2019-02-20T12:21:00.000Z,11.0
2019-02-20T12:26:00.000Z,11.1
2019-02-20T12:31:00.000Z,11.1
2019-02-20T12:36:00.000Z,11.2
2019-02-20T12:41:00.000Z,11.2
2019-02-20T12:46:00.000Z,11.2
2019-02-20T12:51:00.000Z,11.2
2019-02-20T12:56:00.000Z,11.3
2019-02-20T13:01:00.000Z,11.4
2019-02-20T13:06:00.000Z,11.4
2019-02-20T13:11:00.000Z,11.5
2019-02-20T13:16:00.000Z,11.6
2019-02-20T13:21:00.000Z,11.8
2019-02-20T13:26:00.000Z,12.0
2019-02-20T13:31:00.000Z,12.1
2019-02-20T13:36:00.000Z,12.1
2019-02-20T13:41:00.000Z,12.1
2019-02-20T13:46:00.000Z,12.0
2019-02-20T13:51:00.000Z,12.0
2019-02-20T13:56:00.000Z,12.1
2019-02-20T14:02:00.000Z,12.0
2019-02-20T14:07:00.000Z,11.9
2019-02-20T14:12:00.000Z,11.8
2019-02-20T14:17:00.000Z,11.8
2019-02-20T14:22:00.000Z,12.0
2019-02-20T14:27:00.000Z,12.2
2019-02-20T14:32:00.000Z,12.4
2019-02-20T14:37:00.000Z,12.4
2019-02-20T14:42:00.000Z,12.3
2019-02-20T14:47:00.000Z,12.2
2019-02-20T14:52:00.000Z,12.0
2019-02-20T14:57:00.000Z,11.9
2019-02-20T15:02:00.000Z,11.7
2019-02-20T15:07:00.000Z,11.6
2019-02-20T15:12:00.000Z,11.6
2019-02-20T15:17:00.000Z,11.6
2019-02-20T15:22:00.000Z,11.5
2019-02-20T15:27:00.000Z,11.4
2019-02-20T15:32:00.000Z,11.3
2019-02-20T15:37:00.000Z,11.2
2019-02-20T15:42:00.000Z,11.0
2019-02-20T15:47:00.000Z,10.9
2019-02-20T15:52:00.000Z,10.8
2019-02-20T15:57:00.000Z,10.8
2019-02-20T16:02:00.000Z,10.7
2019-02-20T16:07:00.000Z,10.6
2019-02-20T16:12:00.000Z,10.5
2019-02-20T16:17:00.000Z,10.5
2019-02-20T16:22:00.000Z,10.4
2019-02-20T16:27:00.000Z,10.4
2019-02-20T16:32:00.000Z,10.3
2019-02-20T16:37:00.000Z,10.2
2019-02-20T16:42:00.000Z,10.2
2019-02-20T16:47:00.000Z,10.2
2019-02-20T16:52:00.000Z,10.1
2019-02-20T16:57:00.000Z,10.0
2019-02-20T17:02:00.000Z,9.9
2019-02-20T17:07:00.000Z,9.8
2019-02-20T17:12:00.000Z,9.8
2019-02-20T17:18:00.000Z,9.7
2019-02-20T17:23:00.000Z,9.6
2019-02-20T17:28:00.000Z,9.6
2019-02-20T17:33:00.000Z,9.5
2019-02-20T17:38:00.000Z,9.4
2019-02-20T17:43:00.000Z,9.4
2019-02-20T17:48:00.000Z,9.3
2019-02-20T17:53:00.000Z,9.3
2019-02-20T17:58:00.000Z,9.2
2019-02-20T18:03:00.000Z,9.2
2019-02-20T18:08:00.000Z,9.1
2019-02-20T18:13:00.000Z,9.0
2019-02-20T18:18:00.000Z,9.0
2019-02-20T18:23:00.000Z,8.9
2019-02-20T18:28:00.000Z,8.9
2019-02-20T18:33:00.000Z,8.8
2019-02-20T18:38:00.000Z,8.7
2019-02-20T18:43:00.000Z,8.7
2019-02-20T18:48:00.000Z,8.6
2019-02-20T18:53:00.000Z,8.5
2019-02-20T18:58:00.000Z,8.5
2019-02-20T19:03:00.000Z,8.4
2019-02-20T19:08:00.000Z,8.4
2019-02-20T19:13:00.000Z,8.4
2019-02-20T19:18:00.000Z,8.3
2019-02-20T19:23:00.000Z,8.3
2019-02-20T19:28:00.000Z,8.3
2019-02-20T19:33:00.000Z,8.3
2019-02-20T19:38:00.000Z,8.2
2019-02-20T19:43:00.000Z,8.2
2019-02-20T19:48:00.000Z,8.2
2019-02-20T19:53:00.000Z,8.2
2019-02-20T19:58:00.000Z,8.2
2019-02-20T20:03:00.000Z,8.2
2019-02-20T20:08:00.000Z,8.2
2019-02-20T20:13:00.000Z,8.2
2019-02-20T20:19:00.000Z,8.2
2019-02-20T20:24:00.000Z,8.3
2019-02-20T20:29:00.000Z,8.3
2019-02-20T20:34:00.000Z,8.3
2019-02-20T20:39:00.000Z,8.3
2019-02-20T20:44:00.000Z,8.3
2019-02-20T20:49:00.000Z,8.3
2019-02-20T20:54:00.000Z,8.3
2019-02-20T20:59:00.000Z,8.3
2019-02-20T21:04:00.000Z,8.3
2019-02-20T21:09:00.000Z,8.2
2019-02-20T21:14:00.000Z,8.1
2019-02-20T21:19:00.000Z,8.1
2019-02-20T21:24:00.000Z,8.0
2019-02-20T21:29:00.000Z,8.0
2019-02-20T21:34:00.000Z,7.9
2019-02-20T21:39:00.000Z,7.9
2019-02-20T21:44:00.000Z,7.9
2019-02-20T21:49:00.000Z,7.9
2019-02-20T21:54:00.000Z,7.8
2019-02-20T21:59:00.000Z,7.8
2019-02-20T22:04:00.000Z,7.7
2019-02-20T22:09:00.000Z,7.6
2019-02-20T22:14:00.000Z,7.6
2019-02-20T22:19:00.000Z,7.6
2019-02-20T22:24:00.000Z,7.5
2019-02-20T22:29:00.000Z,7.5
2019-02-20T22:34:00.000Z,7.5
2019-02-20T22:39:00.000Z,7.4
2019-02-20T22:44:00.000Z,7.4
2019-02-20T22:49:00.000Z,7.3
2019-02-20T22:54:00.000Z,7.3
2019-02-20T22:59:00.000Z,7.3
2019-02-20T23:05:00.000Z,7.2
2019-02-20T23:10:00.000Z,7.2
2019-02-20T23:15:00.000Z,7.2
2019-02-20T23:20:00.000Z,7.2
2019-02-20T23:25:00.000Z,7.1
2019-02-20T23:30:00.000Z,7.1
2019-02-20T23:35:00.000Z,7.1
2019-02-20T23:40:00.000Z,7.1
2019-02-20T23:45:00.000Z,7.0
2019-02-20T23:50:00.000Z,7.0
2019-02-20T23:55:00.000Z,6.9
